Time;durP1;ratioP1;P1;durP2;ratioP2;P2;SDS_P1;SDS_P2;PMS_P1;PMS_P2;Temp;Humidity;BMP_temperature;BMP_pressure;BME280_temperature;BME280_humidity;BME280_pressure;Samples;Min_cycle;Max_cycle;Signal;HPM_P1;HPM_P2
2021/10/24 00:00:24;;;;;;;27.77;12.60;;;;;;;;;;4990225;28;20057;-65
2021/10/24 00:02:50;;;;;;;21.83;12.68;;;;;;;;;;4987521;28;20081;-65
2021/10/24 00:05:17;;;;;;;24.25;12.88;;;;;;;;;;4993303;28;20050;-66
2021/10/24 00:07:43;;;;;;;21.42;12.38;;;;;;;;;;4985164;28;20060;-66
2021/10/24 00:10:09;;;;;;;26.50;13.85;;;;;;;;;;4996248;28;20080;-67
2021/10/24 00:12:36;;;;;;;26.70;13.43;;;;;;;;;;4995598;28;20053;-66
2021/10/24 00:15:03;;;;;;;22.63;12.23;;;;;;;;;;4991332;28;20431;-66
2021/10/24 00:17:30;;;;;;;21.08;12.50;;;;;;;;;;4988092;28;20145;-66
2021/10/24 00:19:56;;;;;;;22.73;12.25;;;;;;;;;;4981164;28;20107;-67
2021/10/24 00:22:22;;;;;;;25.52;13.05;;;;;;;;;;4986627;28;20046;-66
2021/10/24 00:24:49;;;;;;;23.38;12.50;;;;;;;;;;4986570;28;20050;-66
2021/10/24 00:27:15;;;;;;;17.85;10.23;;;;;;;;;;4990137;28;20053;-66
2021/10/24 00:29:41;;;;;;;31.88;12.30;;;;;;;;;;4992622;28;20084;-66
2021/10/24 00:32:08;;;;;;;20.92;12.77;;;;;;;;;;4989259;28;20141;-66
2021/10/24 00:34:34;;;;;;;21.17;11.45;;;;;;;;;;4987264;28;20053;-66
2021/10/24 00:37:01;;;;;;;24.48;12.20;;;;;;;;;;4980932;28;20081;-67
2021/10/24 00:39:27;;;;;;;22.05;12.30;;;;;;;;;;4990998;28;20042;-66
2021/10/24 00:41:54;;;;;;;23.23;11.63;;;;;;;;;;4985354;28;20179;-66
2021/10/24 00:44:25;;;;;;;23.08;13.10;;;;;;;;;;4994958;28;20054;-67
2021/10/24 00:46:55;;;;;;;22.17;12.73;;;;;;;;;;4995153;28;20925;-67
2021/10/24 00:49:22;;;;;;;24.38;11.88;;;;;;;;;;4981878;28;20140;-67
2021/10/24 00:51:48;;;;;;;21.65;12.20;;;;;;;;;;4995498;28;20493;-67
2021/10/24 00:54:17;;;;;;;23.25;12.75;;;;;;;;;;4985283;28;20486;-66
2021/10/24 00:56:44;;;;;;;20.77;12.05;;;;;;;;;;4990386;28;20057;-67
2021/10/24 00:59:11;;;;;;;19.95;11.35;;;;;;;;;;4986552;28;20552;-66
2021/10/24 01:01:37;;;;;;;22.65;11.23;;;;;;;;;;4992909;28;20049;-67
2021/10/24 01:04:04;;;;;;;26.15;11.68;;;;;;;;;;4987946;28;20050;-66
2021/10/24 01:06:31;;;;;;;30.55;12.60;;;;;;;;;;4985419;28;20053;-67
2021/10/24 01:08:58;;;;;;;20.10;11.32;;;;;;;;;;4994503;28;20463;-66
2021/10/24 01:11:26;;;;;;;18.77;11.80;;;;;;;;;;4968784;28;20042;-66
2021/10/24 01:13:53;;;;;;;21.05;11.35;;;;;;;;;;4994881;28;20050;-66
2021/10/24 01:16:20;;;;;;;26.48;12.88;;;;;;;;;;4981168;28;20060;-66
2021/10/24 01:18:46;;;;;;;29.90;11.90;;;;;;;;;;4989910;28;20080;-66
2021/10/24 01:21:13;;;;;;;23.55;11.73;;;;;;;;;;4996821;28;20084;-66
2021/10/24 01:23:39;;;;;;;21.05;11.45;;;;;;;;;;4988868;28;20569;-66
2021/10/24 01:26:06;;;;;;;17.73;11.23;;;;;;;;;;4993386;28;20349;-67
2021/10/24 01:28:33;;;;;;;19.88;10.98;;;;;;;;;;4981669;28;20061;-66
2021/10/24 01:31:00;;;;;;;19.92;11.10;;;;;;;;;;4986029;28;20050;-66
2021/10/24 01:33:27;;;;;;;19.48;11.07;;;;;;;;;;4987061;28;20502;-69
2021/10/24 01:35:54;;;;;;;20.55;11.13;;;;;;;;;;4996350;28;20046;-68
2021/10/24 01:38:20;;;;;;;19.10;11.02;;;;;;;;;;4996396;28;20457;-69
2021/10/24 01:40:47;;;;;;;20.52;11.23;;;;;;;;;;4989350;28;20052;-69
2021/10/24 01:43:13;;;;;;;20.23;11.15;;;;;;;;;;4992947;28;20098;-69
2021/10/24 01:45:39;;;;;;;17.33;10.38;;;;;;;;;;4982591;28;20057;-69
2021/10/24 01:48:06;;;;;;;20.35;10.30;;;;;;;;;;4994870;28;20347;-69
2021/10/24 01:50:33;;;;;;;21.20;12.23;;;;;;;;;;4991298;28;20085;-69
2021/10/24 01:52:59;;;;;;;18.85;10.75;;;;;;;;;;4994308;28;20045;-69
2021/10/24 01:55:26;;;;;;;19.67;10.88;;;;;;;;;;4990356;28;20547;-68
2021/10/24 01:57:53;;;;;;;20.92;12.02;;;;;;;;;;4963462;28;20441;-68
2021/10/24 02:00:20;;;;;;;21.08;11.65;;;;;;;;;;4972904;28;20395;-68
2021/10/24 02:02:47;;;;;;;19.42;10.95;;;;;;;;;;4975791;28;20049;-69
2021/10/24 02:05:13;;;;;;;23.58;11.68;;;;;;;;;;4972278;28;20054;-68
2021/10/24 02:07:39;;;;;;;23.33;12.18;;;;;;;;;;4968959;28;20047;-68
2021/10/24 02:10:07;;;;;;;22.45;11.95;;;;;;;;;;4972667;28;20734;-69
2021/10/24 02:12:34;;;;;;;22.88;12.38;;;;;;;;;;4977117;28;20430;-69
2021/10/24 02:15:01;;;;;;;20.67;11.57;;;;;;;;;;4973197;28;20043;-68
2021/10/24 02:17:28;;;;;;;18.30;11.18;;;;;;;;;;4976395;28;20147;-69
2021/10/24 02:19:54;;;;;;;21.08;10.85;;;;;;;;;;4971144;28;20495;-68
2021/10/24 02:22:20;;;;;;;20.85;12.50;;;;;;;;;;4979512;28;20050;-68
2021/10/24 02:24:47;;;;;;;22.63;11.93;;;;;;;;;;4972712;28;20553;-69
2021/10/24 02:27:13;;;;;;;23.98;11.57;;;;;;;;;;4979574;28;20053;-69
2021/10/24 02:29:40;;;;;;;26.13;11.35;;;;;;;;;;4977802;28;20064;-69
2021/10/24 02:32:06;;;;;;;29.35;11.65;;;;;;;;;;4981388;28;20054;-69
2021/10/24 02:34:32;;;;;;;21.60;12.13;;;;;;;;;;4981226;28;20057;-70
2021/10/24 02:36:59;;;;;;;21.17;11.30;;;;;;;;;;4980886;28;20055;-68
2021/10/24 02:39:25;;;;;;;20.30;11.77;;;;;;;;;;4978285;28;20050;-68
2021/10/24 02:41:51;;;;;;;20.48;12.10;;;;;;;;;;4978582;28;20050;-68
2021/10/24 02:44:18;;;;;;;23.83;12.48;;;;;;;;;;4988471;28;20046;-68
2021/10/24 02:46:45;;;;;;;24.67;12.32;;;;;;;;;;4982708;28;20052;-69
2021/10/24 02:49:11;;;;;;;24.58;13.52;;;;;;;;;;4976851;28;20043;-68
2021/10/24 02:51:37;;;;;;;20.63;10.68;;;;;;;;;;4980718;28;20052;-69
2021/10/24 02:54:04;;;;;;;22.42;11.23;;;;;;;;;;4977406;28;20428;-69
2021/10/24 02:56:30;;;;;;;19.00;11.43;;;;;;;;;;4983497;28;20061;-69
2021/10/24 02:58:57;;;;;;;21.05;11.70;;;;;;;;;;4984347;28;20134;-68
2021/10/24 03:01:23;;;;;;;20.05;10.65;;;;;;;;;;4980924;28;20065;-69
2021/10/24 03:03:51;;;;;;;23.15;11.77;;;;;;;;;;4974721;28;20049;-68
2021/10/24 03:06:17;;;;;;;19.52;10.93;;;;;;;;;;4966312;28;20047;-68
2021/10/24 03:08:43;;;;;;;17.70;11.10;;;;;;;;;;4976625;28;20055;-69
2021/10/24 03:11:10;;;;;;;19.60;10.80;;;;;;;;;;4976603;28;20534;-69
2021/10/24 03:13:36;;;;;;;18.17;11.02;;;;;;;;;;4985916;28;20058;-69
2021/10/24 03:16:04;;;;;;;19.95;11.20;;;;;;;;;;4975185;28;20074;-69
2021/10/24 03:18:30;;;;;;;20.80;11.55;;;;;;;;;;4980295;28;20042;-69
2021/10/24 03:20:56;;;;;;;21.83;11.80;;;;;;;;;;4976514;28;20046;-69
2021/10/24 03:23:23;;;;;;;20.75;10.55;;;;;;;;;;4971848;28;20050;-69
2021/10/24 03:25:49;;;;;;;22.85;11.85;;;;;;;;;;4986289;28;20047;-68
2021/10/24 03:28:15;;;;;;;22.05;10.68;;;;;;;;;;4979317;28;20046;-68
2021/10/24 03:30:42;;;;;;;23.95;12.95;;;;;;;;;;4978768;28;20047;-68
2021/10/24 03:33:08;;;;;;;19.90;11.13;;;;;;;;;;4966341;28;20046;-68
2021/10/24 03:35:34;;;;;;;20.55;11.13;;;;;;;;;;4980375;28;20051;-69
2021/10/24 03:38:00;;;;;;;24.33;12.00;;;;;;;;;;4976680;28;20038;-68
2021/10/24 03:40:27;;;;;;;23.60;11.65;;;;;;;;;;4984270;28;20054;-68
2021/10/24 03:42:53;;;;;;;24.88;11.88;;;;;;;;;;4976950;28;20050;-68
2021/10/24 03:45:19;;;;;;;20.98;12.35;;;;;;;;;;4965338;28;20503;-68
2021/10/24 03:47:46;;;;;;;20.38;11.48;;;;;;;;;;4978535;28;20050;-68
2021/10/24 03:50:12;;;;;;;23.95;12.23;;;;;;;;;;4971936;28;20239;-68
2021/10/24 03:52:39;;;;;;;25.55;12.52;;;;;;;;;;4976514;28;20058;-67
2021/10/24 03:55:11;;;;;;;21.55;11.10;;;;;;;;;;4982716;28;20038;-67
2021/10/24 03:57:40;;;;;;;28.27;11.82;;;;;;;;;;4975546;28;20057;-68
2021/10/24 04:00:07;;;;;;;21.20;11.75;;;;;;;;;;4981925;28;20046;-69
2021/10/24 04:02:34;;;;;;;21.17;11.88;;;;;;;;;;4970565;28;20065;-69
2021/10/24 04:05:00;;;;;;;27.67;12.68;;;;;;;;;;4976960;28;20042;-69
2021/10/24 04:07:27;;;;;;;26.33;12.52;;;;;;;;;;4970988;28;21420;-69
2021/10/24 04:09:53;;;;;;;30.77;12.90;;;;;;;;;;4976651;28;20069;-69
2021/10/24 04:12:19;;;;;;;23.55;12.15;;;;;;;;;;4977611;28;20051;-69
2021/10/24 04:14:46;;;;;;;21.33;11.88;;;;;;;;;;4974936;28;20051;-69
2021/10/24 04:17:12;;;;;;;24.98;12.80;;;;;;;;;;4971064;28;20074;-69
2021/10/24 04:19:39;;;;;;;25.88;11.73;;;;;;;;;;4974246;28;20406;-68
2021/10/24 04:22:05;;;;;;;25.83;12.05;;;;;;;;;;4985577;28;20069;-69
2021/10/24 04:24:31;;;;;;;21.83;12.40;;;;;;;;;;4967095;28;20066;-69
2021/10/24 04:26:57;;;;;;;24.27;11.50;;;;;;;;;;4982831;28;20061;-70
2021/10/24 04:29:24;;;;;;;21.08;11.70;;;;;;;;;;4975699;28;20085;-69
2021/10/24 04:31:50;;;;;;;19.38;10.07;;;;;;;;;;4966690;28;20047;-69
2021/10/24 04:34:17;;;;;;;23.67;12.07;;;;;;;;;;4981315;28;20054;-69
2021/10/24 04:36:43;;;;;;;21.48;10.73;;;;;;;;;;4970095;28;20522;-69
2021/10/24 04:39:09;;;;;;;21.20;11.77;;;;;;;;;;4974601;28;20047;-69
2021/10/24 04:41:36;;;;;;;18.42;10.77;;;;;;;;;;4969764;28;20050;-68
2021/10/24 04:44:02;;;;;;;20.30;11.68;;;;;;;;;;4975829;28;20046;-69
2021/10/24 04:46:29;;;;;;;21.08;11.35;;;;;;;;;;4976363;28;20059;-69
2021/10/24 04:48:55;;;;;;;22.83;11.52;;;;;;;;;;4974893;28;20058;-69
2021/10/24 04:51:21;;;;;;;26.08;12.13;;;;;;;;;;4981401;28;20046;-69
2021/10/24 04:53:48;;;;;;;21.70;11.38;;;;;;;;;;4970537;28;20078;-69
2021/10/24 04:56:14;;;;;;;18.08;10.10;;;;;;;;;;4976887;28;20050;-69
2021/10/24 04:58:41;;;;;;;29.30;12.90;;;;;;;;;;4968905;28;20066;-68
2021/10/24 05:01:08;;;;;;;25.55;12.60;;;;;;;;;;4977013;28;20057;-68
2021/10/24 05:03:35;;;;;;;21.10;10.90;;;;;;;;;;4986725;28;20839;-69
2021/10/24 05:06:02;;;;;;;22.85;11.68;;;;;;;;;;4971334;28;20065;-69
2021/10/24 05:08:28;;;;;;;19.48;11.38;;;;;;;;;;4977660;28;20053;-69
2021/10/24 05:10:54;;;;;;;24.42;10.65;;;;;;;;;;4968260;28;20038;-69
2021/10/24 05:13:21;;;;;;;23.10;11.35;;;;;;;;;;4976281;28;20483;-69
2021/10/24 05:15:47;;;;;;;21.95;11.98;;;;;;;;;;4969524;28;20081;-68
2021/10/24 05:18:13;;;;;;;17.38;10.68;;;;;;;;;;4975723;28;20069;-69
2021/10/24 05:20:40;;;;;;;23.48;11.95;;;;;;;;;;4977436;28;20049;-69
2021/10/24 05:23:06;;;;;;;23.80;10.85;;;;;;;;;;4973421;28;20062;-69
2021/10/24 05:25:52;;;;;;;19.67;10.60;;;;;;;;;;4974671;28;20058;-69
2021/10/24 05:28:19;;;;;;;18.60;11.20;;;;;;;;;;4970057;28;20522;-69
2021/10/24 05:30:45;;;;;;;17.63;10.52;;;;;;;;;;4981416;28;20707;-69
2021/10/24 05:33:11;;;;;;;17.48;9.93;;;;;;;;;;4977961;28;20896;-68
2021/10/24 05:35:38;;;;;;;25.13;10.90;;;;;;;;;;4974150;28;20411;-69
2021/10/24 05:38:04;;;;;;;19.85;10.48;;;;;;;;;;4976975;28;20062;-69
2021/10/24 05:40:31;;;;;;;20.52;10.57;;;;;;;;;;4971679;28;20054;-69
2021/10/24 05:42:58;;;;;;;18.08;9.60;;;;;;;;;;4975547;28;20053;-68
2021/10/24 05:45:24;;;;;;;17.95;9.73;;;;;;;;;;4971562;28;20038;-69
2021/10/24 05:47:50;;;;;;;14.52;8.57;;;;;;;;;;4983394;28;20054;-68
2021/10/24 05:50:17;;;;;;;15.65;9.77;;;;;;;;;;4972890;28;20050;-67
2021/10/24 05:52:43;;;;;;;19.08;9.45;;;;;;;;;;4979776;28;20045;-68
2021/10/24 05:55:09;;;;;;;20.20;10.48;;;;;;;;;;4982366;28;20065;-69
2021/10/24 05:57:36;;;;;;;21.02;11.38;;;;;;;;;;4975129;28;20055;-68
2021/10/24 06:00:03;;;;;;;21.15;11.07;;;;;;;;;;4987205;28;20054;-68
2021/10/24 06:02:29;;;;;;;23.92;10.90;;;;;;;;;;4977721;28;20050;-68
2021/10/24 06:04:58;;;;;;;16.58;9.68;;;;;;;;;;4971350;28;20321;-68
2021/10/24 06:07:25;;;;;;;18.75;10.45;;;;;;;;;;4967374;28;20042;-68
2021/10/24 06:10:01;;;;;;;19.63;10.45;;;;;;;;;;4979096;28;20129;-68
2021/10/24 06:15:00;;;;;;;17.27;9.90;;;;;;;;;;4970379;28;20055;-69
2021/10/24 06:17:27;;;;;;;21.23;10.43;;;;;;;;;;4977627;28;20074;-69
2021/10/24 06:19:53;;;;;;;21.48;10.13;;;;;;;;;;4959239;28;20050;-68
2021/10/24 06:22:20;;;;;;;16.15;9.02;;;;;;;;;;4982406;28;20491;-68
2021/10/24 06:24:46;;;;;;;16.30;9.55;;;;;;;;;;4971231;28;20063;-68
2021/10/24 06:27:12;;;;;;;17.83;10.32;;;;;;;;;;4987717;28;20057;-69
2021/10/24 06:29:38;;;;;;;17.60;9.63;;;;;;;;;;4984805;28;20475;-68
2021/10/24 06:32:06;;;;;;;16.63;9.35;;;;;;;;;;4965997;28;20273;-68
2021/10/24 06:34:32;;;;;;;15.68;9.52;;;;;;;;;;4974955;28;20057;-68
2021/10/24 06:36:58;;;;;;;15.68;9.35;;;;;;;;;;4968627;28;20160;-69
2021/10/24 06:39:25;;;;;;;20.90;9.55;;;;;;;;;;4977520;28;20050;-68
2021/10/24 06:41:51;;;;;;;18.85;10.48;;;;;;;;;;4975159;28;20054;-68
2021/10/24 06:44:18;;;;;;;26.77;14.70;;;;;;;;;;4980730;28;20050;-68
2021/10/24 06:46:44;;;;;;;22.38;12.48;;;;;;;;;;4974343;28;20411;-68
2021/10/24 06:49:10;;;;;;;20.77;11.63;;;;;;;;;;4946096;28;20051;-69
2021/10/24 06:51:37;;;;;;;21.73;10.35;;;;;;;;;;4980941;28;20046;-68
2021/10/24 06:54:03;;;;;;;19.08;10.65;;;;;;;;;;4971807;28;20082;-68
2021/10/24 06:56:29;;;;;;;15.32;9.23;;;;;;;;;;4970171;28;20043;-68
2021/10/24 06:58:56;;;;;;;16.60;10.20;;;;;;;;;;4971227;28;20042;-67
2021/10/24 07:01:22;;;;;;;16.83;9.82;;;;;;;;;;4977050;28;20181;-68
2021/10/24 07:03:49;;;;;;;18.13;10.38;;;;;;;;;;4980784;28;20133;-68
2021/10/24 07:06:16;;;;;;;20.42;10.38;;;;;;;;;;4973840;28;20050;-69
2021/10/24 07:08:42;;;;;;;20.40;11.75;;;;;;;;;;4979671;28;20039;-69
2021/10/24 07:11:09;;;;;;;19.60;11.73;;;;;;;;;;4980527;28;20048;-69
2021/10/24 07:13:35;;;;;;;18.35;11.27;;;;;;;;;;4980112;28;20062;-69
2021/10/24 07:16:02;;;;;;;21.75;11.85;;;;;;;;;;4969841;28;20078;-69
2021/10/24 07:18:28;;;;;;;21.67;12.65;;;;;;;;;;4975640;28;20055;-69
2021/10/24 07:20:55;;;;;;;27.02;12.57;;;;;;;;;;4981710;28;20062;-69
2021/10/24 07:23:21;;;;;;;22.17;12.90;;;;;;;;;;4978163;28;20059;-69
2021/10/24 07:25:47;;;;;;;23.52;12.80;;;;;;;;;;4984729;28;20054;-69
2021/10/24 07:28:18;;;;;;;22.92;12.70;;;;;;;;;;4973935;28;20104;-70
2021/10/24 07:30:45;;;;;;;21.27;12.70;;;;;;;;;;4981372;28;20129;-69
2021/10/24 07:33:11;;;;;;;23.10;13.20;;;;;;;;;;4981365;28;20066;-69
2021/10/24 07:35:39;;;;;;;24.83;14.70;;;;;;;;;;4979347;28;20637;-69
2021/10/24 07:38:11;;;;;;;25.67;14.50;;;;;;;;;;4987871;28;20052;-69
2021/10/24 07:40:37;;;;;;;32.22;16.83;;;;;;;;;;4979189;28;20050;-69
2021/10/24 07:43:04;;;;;;;33.58;16.63;;;;;;;;;;4975229;28;20498;-70
2021/10/24 07:45:30;;;;;;;24.92;14.18;;;;;;;;;;4976455;28;20586;-70
2021/10/24 07:47:56;;;;;;;30.55;12.82;;;;;;;;;;4983525;28;20042;-70
2021/10/24 07:50:26;;;;;;;23.80;12.60;;;;;;;;;;4976757;28;20776;-68
2021/10/24 07:52:52;;;;;;;30.08;14.23;;;;;;;;;;4989291;28;20061;-68
2021/10/24 07:55:18;;;;;;;30.10;14.30;;;;;;;;;;4974100;28;20074;-69
2021/10/24 07:57:45;;;;;;;23.60;12.27;;;;;;;;;;4970093;28;20039;-68
2021/10/24 08:00:11;;;;;;;27.15;12.88;;;;;;;;;;4983783;28;20053;-68
2021/10/24 08:02:37;;;;;;;24.00;12.35;;;;;;;;;;4968770;28;20054;-69
2021/10/24 08:05:04;;;;;;;26.52;13.80;;;;;;;;;;4980272;28;20463;-69
2021/10/24 08:07:34;;;;;;;20.55;12.63;;;;;;;;;;4973400;28;20046;-69
2021/10/24 08:10:00;;;;;;;20.95;11.27;;;;;;;;;;4976478;28;20042;-69
2021/10/24 08:12:29;;;;;;;25.85;13.00;;;;;;;;;;4977865;28;20049;-69
2021/10/24 08:14:57;;;;;;;27.95;14.63;;;;;;;;;;4968121;28;20045;-69
2021/10/24 08:17:23;;;;;;;25.83;12.80;;;;;;;;;;4982947;28;20723;-70
2021/10/24 08:19:49;;;;;;;26.83;12.60;;;;;;;;;;4977274;28;20089;-70
2021/10/24 08:22:18;;;;;;;23.23;12.18;;;;;;;;;;4984303;28;20050;-70
2021/10/24 08:24:45;;;;;;;25.90;12.30;;;;;;;;;;4968595;28;20043;-70
2021/10/24 08:27:12;;;;;;;23.33;11.45;;;;;;;;;;4989930;28;20723;-70
2021/10/24 08:29:40;;;;;;;25.02;11.45;;;;;;;;;;4983013;28;20047;-70
2021/10/24 08:32:10;;;;;;;23.95;11.85;;;;;;;;;;4981266;28;20080;-69
2021/10/24 08:34:37;;;;;;;24.10;11.63;;;;;;;;;;4986654;28;20048;-70
2021/10/24 08:37:05;;;;;;;22.98;11.75;;;;;;;;;;4968912;28;20087;-70
2021/10/24 08:39:32;;;;;;;20.13;11.40;;;;;;;;;;4973101;28;20145;-70
2021/10/24 08:41:59;;;;;;;24.88;11.68;;;;;;;;;;4982450;28;20566;-70
2021/10/24 08:44:25;;;;;;;22.00;12.02;;;;;;;;;;4984852;28;20046;-70
2021/10/24 08:46:52;;;;;;;28.02;12.48;;;;;;;;;;4974683;28;20069;-69
2021/10/24 08:49:19;;;;;;;24.85;12.30;;;;;;;;;;4985859;28;20137;-69
2021/10/24 08:51:47;;;;;;;23.45;12.18;;;;;;;;;;4979658;28;20062;-69
2021/10/24 08:54:13;;;;;;;20.23;10.77;;;;;;;;;;4967735;28;20165;-69
2021/10/24 08:56:40;;;;;;;18.70;10.32;;;;;;;;;;4976186;28;20061;-69
2021/10/24 08:59:07;;;;;;;24.92;10.85;;;;;;;;;;4977179;28;20050;-69
2021/10/24 09:01:49;;;;;;;24.33;11.68;;;;;;;;;;4966097;28;20072;-70
2021/10/24 09:04:15;;;;;;;20.13;10.48;;;;;;;;;;4963949;28;20079;-69
2021/10/24 09:06:42;;;;;;;25.27;12.15;;;;;;;;;;4970332;28;20051;-70
2021/10/24 09:09:16;;;;;;;23.30;11.55;;;;;;;;;;4979004;28;20042;-69
2021/10/24 09:11:48;;;;;;;23.05;11.43;;;;;;;;;;4986740;28;20408;-69
2021/10/24 09:14:33;;;;;;;19.08;11.23;;;;;;;;;;4973959;28;20074;-70
2021/10/24 09:17:00;;;;;;;21.70;11.73;;;;;;;;;;4971224;28;20051;-70
2021/10/24 09:19:31;;;;;;;19.10;11.07;;;;;;;;;;4967374;28;20070;-69
2021/10/24 09:22:10;;;;;;;22.88;11.90;;;;;;;;;;4962646;28;20054;-69
2021/10/24 09:24:36;;;;;;;;;;;;;;;;;;4979832;28;20057;-69
2021/10/24 09:27:08;;;;;;;21.38;11.45;;;;;;;;;;4989474;28;19925;-69
2021/10/24 09:29:35;;;;;;;21.52;11.32;;;;;;;;;;4983773;28;20046;-69
2021/10/24 09:32:02;;;;;;;21.65;11.15;;;;;;;;;;4980079;28;20057;-69
2021/10/24 09:34:29;;;;;;;22.83;11.02;;;;;;;;;;4963883;28;20058;-69
2021/10/24 09:36:56;;;;;;;17.05;9.68;;;;;;;;;;4972670;28;20041;-69
2021/10/24 09:39:27;;;;;;;23.55;11.35;;;;;;;;;;4971627;28;20064;-68
2021/10/24 09:42:09;;;;;;;23.88;10.40;;;;;;;;;;4986377;28;20520;-69
2021/10/24 09:44:36;;;;;;;18.23;9.65;;;;;;;;;;4976107;28;20050;-69
2021/10/24 09:47:03;;;;;;;23.17;10.32;;;;;;;;;;4979820;28;20334;-69
2021/10/24 09:49:30;;;;;;;18.65;10.23;;;;;;;;;;4982974;28;20050;-69
2021/10/24 09:51:56;;;;;;;17.42;10.25;;;;;;;;;;4975771;28;20038;-70
2021/10/24 09:54:23;;;;;;;26.77;11.02;;;;;;;;;;4977643;28;20047;-69
2021/10/24 09:56:51;;;;;;;22.77;10.93;;;;;;;;;;4970245;28;20505;-70
2021/10/24 09:59:18;;;;;;;21.75;9.88;;;;;;;;;;4976389;28;20384;-69
2021/10/24 10:01:46;;;;;;;21.23;10.43;;;;;;;;;;4970126;28;20137;-69
2021/10/24 10:04:13;;;;;;;18.23;8.87;;;;;;;;;;4982245;28;20939;-69
2021/10/24 10:06:42;;;;;;;18.77;10.02;;;;;;;;;;4968413;28;20765;-68
2021/10/24 10:09:08;;;;;;;20.63;9.40;;;;;;;;;;4982563;28;20050;-69
2021/10/24 10:11:43;;;;;;;22.88;11.20;;;;;;;;;;4977529;28;20051;-69
2021/10/24 10:14:15;;;;;;;20.73;10.00;;;;;;;;;;4970190;28;20496;-68
2021/10/24 10:16:43;;;;;;;16.70;9.80;;;;;;;;;;4966665;28;20151;-68
2021/10/24 10:19:13;;;;;;;16.13;8.80;;;;;;;;;;4976429;28;20086;-68
2021/10/24 10:21:41;;;;;;;19.35;9.65;;;;;;;;;;4980092;28;20050;-68
2021/10/24 10:24:10;;;;;;;19.80;10.05;;;;;;;;;;4973397;28;20133;-68
2021/10/24 10:26:43;;;;;;;17.55;10.05;;;;;;;;;;4984328;28;20684;-68
2021/10/24 10:29:10;;;;;;;18.27;8.55;;;;;;;;;;4975766;28;20073;-68
2021/10/24 10:31:37;;;;;;;13.00;7.70;;;;;;;;;;4973346;28;20051;-68
2021/10/24 10:34:05;;;;;;;16.30;9.30;;;;;;;;;;4970934;28;20411;-68
2021/10/24 10:36:44;;;;;;;18.65;9.57;;;;;;;;;;4967968;28;20134;-68
2021/10/24 10:39:29;;;;;;;17.17;9.25;;;;;;;;;;4976920;28;20058;-69
2021/10/24 10:41:56;;;;;;;15.48;8.77;;;;;;;;;;4976211;28;20047;-68
2021/10/24 10:44:22;;;;;;;20.20;9.07;;;;;;;;;;4972736;28;20054;-68
2021/10/24 10:46:48;;;;;;;19.50;10.07;;;;;;;;;;4977706;28;20049;-69
2021/10/24 10:49:27;;;;;;;17.35;8.55;;;;;;;;;;4982175;28;20410;-68
2021/10/24 10:51:54;;;;;;;17.27;8.50;;;;;;;;;;4979210;28;20609;-68
2021/10/24 10:54:20;;;;;;;16.38;8.38;;;;;;;;;;4971899;28;20047;-69
2021/10/24 10:56:55;;;;;;;16.45;9.18;;;;;;;;;;4978483;28;20396;-69
2021/10/24 10:59:29;;;;;;;15.02;8.45;;;;;;;;;;4971849;28;20173;-66
2021/10/24 11:02:16;;;;;;;11.63;7.57;;;;;;;;;;4985527;28;20046;-67
2021/10/24 11:04:46;;;;;;;19.13;8.77;;;;;;;;;;4981874;28;20042;-67
2021/10/24 11:07:31;;;;;;;15.65;7.85;;;;;;;;;;4980755;28;20046;-67
2021/10/24 11:09:58;;;;;;;15.95;8.52;;;;;;;;;;4967652;28;20050;-67
2021/10/24 11:12:37;;;;;;;14.63;7.88;;;;;;;;;;4986368;28;20047;-67
2021/10/24 11:15:05;;;;;;;17.80;8.02;;;;;;;;;;4984175;28;20047;-67
2021/10/24 11:17:33;;;;;;;15.75;8.30;;;;;;;;;;4977511;28;20050;-66
2021/10/24 11:20:18;;;;;;;16.35;8.10;;;;;;;;;;4986314;28;20185;-67
2021/10/24 11:22:45;;;;;;;13.88;8.13;;;;;;;;;;4970564;28;20054;-67
2021/10/24 11:25:22;;;;;;;15.77;8.23;;;;;;;;;;4975955;28;20070;-67
2021/10/24 11:27:49;;;;;;;17.25;8.43;;;;;;;;;;4988632;28;20066;-67
2021/10/24 11:30:17;;;;;;;13.35;7.53;;;;;;;;;;4977062;28;20047;-67
2021/10/24 11:32:44;;;;;;;15.63;7.93;;;;;;;;;;4976304;28;20598;-67
2021/10/24 11:35:13;;;;;;;17.95;8.57;;;;;;;;;;4984191;28;20079;-68
2021/10/24 11:37:41;;;;;;;18.70;8.40;;;;;;;;;;4982482;28;20043;-67
2021/10/24 11:40:11;;;;;;;12.90;6.97;;;;;;;;;;4968939;28;20050;-67
2021/10/24 11:42:38;;;;;;;12.25;7.10;;;;;;;;;;4984247;28;20043;-67
2021/10/24 11:45:18;;;;;;;14.90;7.22;;;;;;;;;;4976963;28;20049;-68
2021/10/24 11:47:57;;;;;;;12.23;7.57;;;;;;;;;;4981907;28;20061;-67
2021/10/24 11:50:43;;;;;;;14.73;7.70;;;;;;;;;;4977286;28;20383;-67
2021/10/24 11:53:11;;;;;;;12.80;7.68;;;;;;;;;;4970968;28;20057;-67
2021/10/24 11:55:38;;;;;;;12.15;7.15;;;;;;;;;;4968632;28;20483;-67
2021/10/24 11:58:22;;;;;;;15.82;7.80;;;;;;;;;;4987209;28;20070;-67
2021/10/24 12:00:51;;;;;;;14.90;7.78;;;;;;;;;;4981636;28;20043;-67
2021/10/24 12:03:24;;;;;;;14.65;7.80;;;;;;;;;;4977613;28;20058;-67
2021/10/24 12:05:51;;;;;;;17.23;8.43;;;;;;;;;;4983576;28;20055;-66
2021/10/24 12:08:19;;;;;;;12.32;7.65;;;;;;;;;;4967500;28;20047;-67
2021/10/24 12:10:45;;;;;;;;;;;;;;;;;;4966919;28;20061;-67
2021/10/24 12:13:47;;;;;;;16.67;7.35;;;;;;;;;;4990770;28;19936;-67
2021/10/24 12:16:43;;;;;;;11.98;6.10;;;;;;;;;;4891465;29;20212;-67
2021/10/24 12:19:09;;;;;;;11.98;6.18;;;;;;;;;;4859452;29;20147;-67
2021/10/24 12:21:36;;;;;;;11.95;6.55;;;;;;;;;;4883548;29;20051;-66
2021/10/24 12:24:19;;;;;;;15.25;7.22;;;;;;;;;;4882293;29;20067;-66
2021/10/24 12:26:46;;;;;;;12.63;7.28;;;;;;;;;;4890633;29;20052;-67
2021/10/24 12:29:13;;;;;;;12.63;6.95;;;;;;;;;;4890762;29;20056;-67
2021/10/24 12:31:39;;;;;;;11.02;7.18;;;;;;;;;;4884919;29;20048;-66
2021/10/24 12:34:14;;;;;;;11.50;6.70;;;;;;;;;;4887787;29;20044;-66
2021/10/24 12:36:42;;;;;;;12.80;7.43;;;;;;;;;;4880349;29;20056;-67
2021/10/24 12:39:20;;;;;;;11.30;7.32;;;;;;;;;;4891675;29;20052;-67
2021/10/24 12:41:47;;;;;;;11.77;7.40;;;;;;;;;;4884200;29;20048;-67
2021/10/24 12:44:15;;;;;;;12.18;6.88;;;;;;;;;;4890964;29;20064;-67
2021/10/24 12:46:41;;;;;;;14.52;7.88;;;;;;;;;;4885053;29;20079;-66
2021/10/24 12:49:09;;;;;;;10.90;7.10;;;;;;;;;;4885867;28;20584;-67
2021/10/24 12:51:36;;;;;;;14.63;7.78;;;;;;;;;;4992356;28;20050;-67
2021/10/24 12:54:05;;;;;;;14.00;7.93;;;;;;;;;;4992932;28;20562;-66
2021/10/24 12:56:33;;;;;;;15.07;6.88;;;;;;;;;;4998166;28;20053;-67
2021/10/24 12:58:59;;;;;;;12.63;6.35;;;;;;;;;;4990837;28;20049;-66
2021/10/24 13:01:26;;;;;;;12.50;7.55;;;;;;;;;;4996027;28;20057;-67
2021/10/24 13:03:54;;;;;;;13.85;8.02;;;;;;;;;;4981244;28;20050;-66
2021/10/24 13:06:21;;;;;;;14.80;7.38;;;;;;;;;;4989733;28;20050;-66
2021/10/24 13:08:47;;;;;;;12.43;6.97;;;;;;;;;;4995413;28;20117;-66
2021/10/24 13:11:14;;;;;;;13.38;7.43;;;;;;;;;;4988100;28;20069;-67
2021/10/24 13:13:41;;;;;;;14.02;7.63;;;;;;;;;;4994853;28;20049;-66
2021/10/24 13:16:08;;;;;;;15.95;7.80;;;;;;;;;;4985560;28;20053;-67
2021/10/24 13:18:34;;;;;;;14.13;7.30;;;;;;;;;;4990090;28;20112;-66
2021/10/24 13:21:05;;;;;;;16.05;8.10;;;;;;;;;;4991357;28;20057;-66
2021/10/24 13:23:31;;;;;;;13.98;7.60;;;;;;;;;;4997536;28;20064;-67
2021/10/24 13:25:58;;;;;;;17.25;8.13;;;;;;;;;;4995794;28;20080;-66
2021/10/24 13:28:25;;;;;;;14.00;7.53;;;;;;;;;;4988544;28;20046;-66
2021/10/24 13:30:52;;;;;;;20.15;8.55;;;;;;;;;;4992137;28;20053;-67
2021/10/24 13:33:18;;;;;;;11.77;7.00;;;;;;;;;;4984564;28;20046;-66
2021/10/24 13:35:45;;;;;;;14.07;7.60;;;;;;;;;;4997579;28;20510;-67
2021/10/24 13:38:11;;;;;;;12.20;7.82;;;;;;;;;;4994973;28;20415;-67
2021/10/24 13:40:38;;;;;;;15.52;7.97;;;;;;;;;;4987714;28;20058;-66
2021/10/24 13:43:05;;;;;;;12.50;8.00;;;;;;;;;;4993776;28;20054;-67
2021/10/24 13:45:32;;;;;;;13.52;7.97;;;;;;;;;;4983408;28;20092;-66
2021/10/24 13:47:59;;;;;;;12.95;7.45;;;;;;;;;;4993485;28;20061;-66
2021/10/24 13:50:26;;;;;;;12.23;7.55;;;;;;;;;;4989626;28;20049;-67
2021/10/24 13:52:52;;;;;;;11.95;7.63;;;;;;;;;;4992055;28;20058;-67
2021/10/24 13:55:19;;;;;;;13.05;7.75;;;;;;;;;;4987184;28;20050;-66
2021/10/24 13:57:45;;;;;;;12.38;7.93;;;;;;;;;;4993091;28;20054;-66
2021/10/24 14:00:12;;;;;;;12.98;7.82;;;;;;;;;;4988553;28;20054;-67
2021/10/24 14:02:47;;;;;;;11.68;8.02;;;;;;;;;;4986913;28;20149;-67
2021/10/24 14:05:14;;;;;;;13.90;7.75;;;;;;;;;;4995180;28;20565;-67
2021/10/24 14:07:41;;;;;;;15.32;8.48;;;;;;;;;;4966222;28;20548;-67
2021/10/24 14:10:07;;;;;;;12.10;7.75;;;;;;;;;;4994364;28;20048;-67
2021/10/24 14:12:34;;;;;;;13.13;7.88;;;;;;;;;;4983477;28;20053;-66
2021/10/24 14:15:00;;;;;;;16.73;8.27;;;;;;;;;;4986883;28;20046;-67
2021/10/24 14:17:26;;;;;;;12.63;8.00;;;;;;;;;;4996380;28;20038;-68
2021/10/24 14:19:53;;;;;;;15.70;7.63;;;;;;;;;;4989908;28;20065;-67
2021/10/24 14:22:21;;;;;;;14.95;7.25;;;;;;;;;;4997899;28;20483;-67
2021/10/24 14:24:48;;;;;;;15.68;7.47;;;;;;;;;;4991628;28;20419;-66
2021/10/24 14:27:14;;;;;;;13.82;7.13;;;;;;;;;;4993492;28;20077;-67